sensor_id;sensor_type;location;lat;lon;timestamp;P1;durP1;ratioP1;P2;durP2;ratioP2
41653;SDS011;68687;52.030;7.110;2023-07-31T00:00:10;4.25;;;3.17;;
41653;SDS011;68687;52.030;7.110;2023-07-31T00:02:36;4.65;;;3.10;;
41653;SDS011;68687;52.030;7.110;2023-07-31T00:05:01;4.22;;;3.22;;
41653;SDS011;68687;52.030;7.110;2023-07-31T00:07:26;3.28;;;2.97;;
41653;SDS011;68687;52.030;7.110;2023-07-31T00:09:52;3.35;;;3.05;;
41653;SDS011;68687;52.030;7.110;2023-07-31T00:12:18;3.75;;;2.92;;
41653;SDS011;68687;52.030;7.110;2023-07-31T00:14:44;3.25;;;2.92;;
41653;SDS011;68687;52.030;7.110;2023-07-31T00:17:09;3.75;;;3.30;;
41653;SDS011;68687;52.030;7.110;2023-07-31T00:19:34;3.40;;;3.10;;
41653;SDS011;68687;52.030;7.110;2023-07-31T00:22:00;4.90;;;3.33;;
41653;SDS011;68687;52.030;7.110;2023-07-31T00:24:25;3.97;;;3.50;;
41653;SDS011;68687;52.030;7.110;2023-07-31T00:26:51;3.67;;;3.13;;
41653;SDS011;68687;52.030;7.110;2023-07-31T00:29:16;6.78;;;4.32;;
41653;SDS011;68687;52.030;7.110;2023-07-31T00:31:41;6.53;;;3.80;;
41653;SDS011;68687;52.030;7.110;2023-07-31T00:34:06;5.68;;;4.45;;
41653;SDS011;68687;52.030;7.110;2023-07-31T00:36:32;5.82;;;4.45;;
41653;SDS011;68687;52.030;7.110;2023-07-31T00:38:57;3.90;;;3.60;;
41653;SDS011;68687;52.030;7.110;2023-07-31T00:41:22;4.90;;;4.40;;
41653;SDS011;68687;52.030;7.110;2023-07-31T00:43:47;6.13;;;4.47;;
41653;SDS011;68687;52.030;7.110;2023-07-31T00:46:13;6.63;;;4.63;;
41653;SDS011;68687;52.030;7.110;2023-07-31T00:48:38;5.45;;;4.22;;
41653;SDS011;68687;52.030;7.110;2023-07-31T00:51:04;4.15;;;3.75;;
41653;SDS011;68687;52.030;7.110;2023-07-31T00:53:29;5.63;;;3.90;;
41653;SDS011;68687;52.030;7.110;2023-07-31T00:55:55;4.10;;;3.70;;
41653;SDS011;68687;52.030;7.110;2023-07-31T00:58:21;4.75;;;4.00;;
41653;SDS011;68687;52.030;7.110;2023-07-31T01:00:46;5.07;;;4.15;;
41653;SDS011;68687;52.030;7.110;2023-07-31T01:03:12;5.38;;;4.10;;
41653;SDS011;68687;52.030;7.110;2023-07-31T01:05:49;5.20;;;4.20;;
41653;SDS011;68687;52.030;7.110;2023-07-31T01:08:21;5.40;;;4.25;;
41653;SDS011;68687;52.030;7.110;2023-07-31T01:10:55;4.45;;;4.05;;
41653;SDS011;68687;52.030;7.110;2023-07-31T01:13:25;5.30;;;4.30;;
41653;SDS011;68687;52.030;7.110;2023-07-31T01:15:51;6.63;;;4.43;;
41653;SDS011;68687;52.030;7.110;2023-07-31T01:18:16;4.90;;;3.88;;
41653;SDS011;68687;52.030;7.110;2023-07-31T01:20:42;4.10;;;3.70;;
41653;SDS011;68687;52.030;7.110;2023-07-31T01:23:13;5.40;;;4.05;;
41653;SDS011;68687;52.030;7.110;2023-07-31T01:25:53;3.90;;;3.60;;
41653;SDS011;68687;52.030;7.110;2023-07-31T01:28:25;5.72;;;3.50;;
41653;SDS011;68687;52.030;7.110;2023-07-31T01:30:58;4.50;;;4.00;;
41653;SDS011;68687;52.030;7.110;2023-07-31T01:33:25;3.90;;;3.60;;
41653;SDS011;68687;52.030;7.110;2023-07-31T01:35:50;3.85;;;3.55;;
41653;SDS011;68687;52.030;7.110;2023-07-31T01:38:20;4.50;;;4.10;;
41653;SDS011;68687;52.030;7.110;2023-07-31T01:40:48;4.05;;;3.63;;
41653;SDS011;68687;52.030;7.110;2023-07-31T01:43:16;4.88;;;3.60;;
41653;SDS011;68687;52.030;7.110;2023-07-31T01:45:41;3.65;;;3.35;;
41653;SDS011;68687;52.030;7.110;2023-07-31T01:48:06;3.50;;;3.20;;
41653;SDS011;68687;52.030;7.110;2023-07-31T01:50:32;3.75;;;3.17;;
41653;SDS011;68687;52.030;7.110;2023-07-31T01:52:57;3.47;;;3.17;;
41653;SDS011;68687;52.030;7.110;2023-07-31T01:55:22;2.90;;;2.70;;
41653;SDS011;68687;52.030;7.110;2023-07-31T01:57:48;3.03;;;2.83;;
41653;SDS011;68687;52.030;7.110;2023-07-31T02:00:13;4.40;;;3.97;;
41653;SDS011;68687;52.030;7.110;2023-07-31T02:02:38;6.63;;;5.18;;
41653;SDS011;68687;52.030;7.110;2023-07-31T02:05:04;10.48;;;6.78;;
41653;SDS011;68687;52.030;7.110;2023-07-31T02:07:30;12.15;;;7.72;;
41653;SDS011;68687;52.030;7.110;2023-07-31T02:09:55;15.38;;;8.55;;
41653;SDS011;68687;52.030;7.110;2023-07-31T02:12:20;25.75;;;10.15;;
41653;SDS011;68687;52.030;7.110;2023-07-31T02:14:46;22.33;;;11.82;;
41653;SDS011;68687;52.030;7.110;2023-07-31T02:17:11;30.83;;;12.50;;
41653;SDS011;68687;52.030;7.110;2023-07-31T02:19:36;31.40;;;12.80;;
41653;SDS011;68687;52.030;7.110;2023-07-31T02:22:02;29.70;;;13.95;;
41653;SDS011;68687;52.030;7.110;2023-07-31T02:24:27;30.10;;;13.25;;
41653;SDS011;68687;52.030;7.110;2023-07-31T02:26:53;33.40;;;14.88;;
41653;SDS011;68687;52.030;7.110;2023-07-31T02:29:18;30.05;;;15.35;;
41653;SDS011;68687;52.030;7.110;2023-07-31T02:31:43;36.28;;;16.77;;
41653;SDS011;68687;52.030;7.110;2023-07-31T02:34:08;45.78;;;16.88;;
41653;SDS011;68687;52.030;7.110;2023-07-31T02:36:34;36.45;;;17.58;;
41653;SDS011;68687;52.030;7.110;2023-07-31T02:38:59;44.78;;;19.25;;
41653;SDS011;68687;52.030;7.110;2023-07-31T02:41:24;43.88;;;19.42;;
41653;SDS011;68687;52.030;7.110;2023-07-31T02:43:49;42.80;;;17.48;;
41653;SDS011;68687;52.030;7.110;2023-07-31T02:46:15;39.60;;;16.90;;
41653;SDS011;68687;52.030;7.110;2023-07-31T02:48:40;42.08;;;17.20;;
41653;SDS011;68687;52.030;7.110;2023-07-31T02:51:05;34.35;;;18.27;;
41653;SDS011;68687;52.030;7.110;2023-07-31T02:53:31;31.45;;;15.80;;
41653;SDS011;68687;52.030;7.110;2023-07-31T02:55:56;34.25;;;16.13;;
41653;SDS011;68687;52.030;7.110;2023-07-31T02:58:21;35.30;;;17.17;;
41653;SDS011;68687;52.030;7.110;2023-07-31T03:00:46;38.55;;;15.93;;
41653;SDS011;68687;52.030;7.110;2023-07-31T03:03:12;41.33;;;15.57;;
41653;SDS011;68687;52.030;7.110;2023-07-31T03:05:37;30.95;;;15.93;;
41653;SDS011;68687;52.030;7.110;2023-07-31T03:08:02;41.15;;;14.82;;
41653;SDS011;68687;52.030;7.110;2023-07-31T03:10:28;40.17;;;14.60;;
41653;SDS011;68687;52.030;7.110;2023-07-31T03:12:54;36.08;;;14.98;;
41653;SDS011;68687;52.030;7.110;2023-07-31T03:15:19;30.52;;;14.02;;
41653;SDS011;68687;52.030;7.110;2023-07-31T03:17:44;30.88;;;13.90;;
41653;SDS011;68687;52.030;7.110;2023-07-31T03:20:10;28.30;;;13.88;;
41653;SDS011;68687;52.030;7.110;2023-07-31T03:22:35;25.40;;;13.85;;
41653;SDS011;68687;52.030;7.110;2023-07-31T03:25:03;31.13;;;13.48;;
41653;SDS011;68687;52.030;7.110;2023-07-31T03:27:29;32.10;;;13.82;;
41653;SDS011;68687;52.030;7.110;2023-07-31T03:29:54;33.35;;;13.93;;
41653;SDS011;68687;52.030;7.110;2023-07-31T03:32:20;25.42;;;12.90;;
41653;SDS011;68687;52.030;7.110;2023-07-31T03:34:45;28.90;;;12.93;;
41653;SDS011;68687;52.030;7.110;2023-07-31T03:37:11;43.17;;;13.65;;
41653;SDS011;68687;52.030;7.110;2023-07-31T03:39:36;32.05;;;14.82;;
41653;SDS011;68687;52.030;7.110;2023-07-31T03:42:01;28.95;;;12.55;;
41653;SDS011;68687;52.030;7.110;2023-07-31T03:44:27;25.95;;;13.10;;
41653;SDS011;68687;52.030;7.110;2023-07-31T03:46:52;34.67;;;11.65;;
41653;SDS011;68687;52.030;7.110;2023-07-31T03:49:17;39.22;;;13.60;;
41653;SDS011;68687;52.030;7.110;2023-07-31T03:51:43;26.15;;;11.88;;
41653;SDS011;68687;52.030;7.110;2023-07-31T03:54:08;22.70;;;11.88;;
41653;SDS011;68687;52.030;7.110;2023-07-31T03:56:34;33.20;;;12.63;;
41653;SDS011;68687;52.030;7.110;2023-07-31T03:58:59;24.15;;;11.98;;
41653;SDS011;68687;52.030;7.110;2023-07-31T04:01:24;29.55;;;12.80;;
41653;SDS011;68687;52.030;7.110;2023-07-31T04:03:49;29.25;;;12.07;;
41653;SDS011;68687;52.030;7.110;2023-07-31T04:06:15;37.17;;;13.90;;
41653;SDS011;68687;52.030;7.110;2023-07-31T04:08:43;31.50;;;12.75;;
41653;SDS011;68687;52.030;7.110;2023-07-31T04:11:11;32.13;;;13.05;;
41653;SDS011;68687;52.030;7.110;2023-07-31T04:13:37;30.08;;;11.93;;
41653;SDS011;68687;52.030;7.110;2023-07-31T04:16:03;27.85;;;12.35;;
41653;SDS011;68687;52.030;7.110;2023-07-31T04:18:28;30.02;;;11.45;;
41653;SDS011;68687;52.030;7.110;2023-07-31T04:20:56;30.15;;;11.23;;
41653;SDS011;68687;52.030;7.110;2023-07-31T04:23:21;28.88;;;11.57;;
41653;SDS011;68687;52.030;7.110;2023-07-31T04:25:47;20.35;;;10.48;;
41653;SDS011;68687;52.030;7.110;2023-07-31T04:28:12;28.92;;;10.93;;
41653;SDS011;68687;52.030;7.110;2023-07-31T04:30:37;21.30;;;9.88;;
41653;SDS011;68687;52.030;7.110;2023-07-31T04:33:02;24.98;;;10.25;;
41653;SDS011;68687;52.030;7.110;2023-07-31T04:35:28;22.60;;;10.73;;
41653;SDS011;68687;52.030;7.110;2023-07-31T04:37:54;27.13;;;10.63;;
41653;SDS011;68687;52.030;7.110;2023-07-31T04:40:19;21.42;;;9.60;;
41653;SDS011;68687;52.030;7.110;2023-07-31T04:42:44;28.00;;;9.88;;
41653;SDS011;68687;52.030;7.110;2023-07-31T04:45:11;27.77;;;10.15;;
41653;SDS011;68687;52.030;7.110;2023-07-31T04:47:36;29.30;;;10.63;;
41653;SDS011;68687;52.030;7.110;2023-07-31T04:50:02;28.25;;;10.13;;
41653;SDS011;68687;52.030;7.110;2023-07-31T04:52:27;22.98;;;10.65;;
41653;SDS011;68687;52.030;7.110;2023-07-31T04:54:52;28.08;;;10.35;;
41653;SDS011;68687;52.030;7.110;2023-07-31T04:57:18;29.45;;;10.60;;
41653;SDS011;68687;52.030;7.110;2023-07-31T04:59:43;25.45;;;9.57;;
41653;SDS011;68687;52.030;7.110;2023-07-31T05:02:08;25.17;;;10.13;;
41653;SDS011;68687;52.030;7.110;2023-07-31T05:04:34;19.10;;;8.98;;
41653;SDS011;68687;52.030;7.110;2023-07-31T05:06:59;30.60;;;11.13;;
41653;SDS011;68687;52.030;7.110;2023-07-31T05:09:24;26.92;;;9.10;;
41653;SDS011;68687;52.030;7.110;2023-07-31T05:11:50;21.55;;;9.52;;
41653;SDS011;68687;52.030;7.110;2023-07-31T05:14:15;27.33;;;9.50;;
41653;SDS011;68687;52.030;7.110;2023-07-31T05:16:40;21.67;;;9.18;;
41653;SDS011;68687;52.030;7.110;2023-07-31T05:19:06;23.15;;;9.60;;
41653;SDS011;68687;52.030;7.110;2023-07-31T05:21:32;24.95;;;9.68;;
41653;SDS011;68687;52.030;7.110;2023-07-31T05:23:57;19.58;;;9.00;;
41653;SDS011;68687;52.030;7.110;2023-07-31T05:26:22;22.23;;;8.98;;
41653;SDS011;68687;52.030;7.110;2023-07-31T05:28:48;29.60;;;9.77;;
41653;SDS011;68687;52.030;7.110;2023-07-31T05:31:13;23.85;;;9.10;;
41653;SDS011;68687;52.030;7.110;2023-07-31T05:33:38;20.08;;;8.90;;
41653;SDS011;68687;52.030;7.110;2023-07-31T05:36:04;23.52;;;9.68;;
41653;SDS011;68687;52.030;7.110;2023-07-31T05:38:29;23.92;;;9.40;;
41653;SDS011;68687;52.030;7.110;2023-07-31T05:40:55;18.73;;;9.30;;
41653;SDS011;68687;52.030;7.110;2023-07-31T05:43:20;24.50;;;9.93;;
41653;SDS011;68687;52.030;7.110;2023-07-31T05:45:46;27.52;;;9.48;;
41653;SDS011;68687;52.030;7.110;2023-07-31T05:48:12;27.58;;;9.38;;
41653;SDS011;68687;52.030;7.110;2023-07-31T05:50:37;24.45;;;9.55;;
41653;SDS011;68687;52.030;7.110;2023-07-31T05:53:04;25.33;;;10.13;;
41653;SDS011;68687;52.030;7.110;2023-07-31T05:55:30;27.50;;;9.18;;
41653;SDS011;68687;52.030;7.110;2023-07-31T05:57:55;27.45;;;10.27;;
41653;SDS011;68687;52.030;7.110;2023-07-31T06:00:20;32.17;;;10.18;;
41653;SDS011;68687;52.030;7.110;2023-07-31T06:02:47;25.40;;;8.43;;
41653;SDS011;68687;52.030;7.110;2023-07-31T06:05:12;28.73;;;9.68;;
41653;SDS011;68687;52.030;7.110;2023-07-31T06:07:38;28.85;;;9.38;;
41653;SDS011;68687;52.030;7.110;2023-07-31T06:10:03;23.10;;;8.57;;
41653;SDS011;68687;52.030;7.110;2023-07-31T06:12:33;24.95;;;9.07;;
41653;SDS011;68687;52.030;7.110;2023-07-31T06:14:59;23.80;;;8.93;;
41653;SDS011;68687;52.030;7.110;2023-07-31T06:17:25;26.80;;;9.25;;
41653;SDS011;68687;52.030;7.110;2023-07-31T06:19:51;24.13;;;8.48;;
41653;SDS011;68687;52.030;7.110;2023-07-31T06:22:17;28.98;;;9.30;;
41653;SDS011;68687;52.030;7.110;2023-07-31T06:24:42;24.10;;;9.45;;
41653;SDS011;68687;52.030;7.110;2023-07-31T06:27:07;25.00;;;8.43;;
41653;SDS011;68687;52.030;7.110;2023-07-31T06:29:33;25.95;;;8.63;;
41653;SDS011;68687;52.030;7.110;2023-07-31T06:31:58;30.42;;;9.52;;
41653;SDS011;68687;52.030;7.110;2023-07-31T06:34:24;24.70;;;8.65;;
41653;SDS011;68687;52.030;7.110;2023-07-31T06:36:49;24.48;;;8.82;;
41653;SDS011;68687;52.030;7.110;2023-07-31T06:39:14;20.70;;;8.88;;
41653;SDS011;68687;52.030;7.110;2023-07-31T06:41:39;20.92;;;8.23;;
41653;SDS011;68687;52.030;7.110;2023-07-31T06:44:05;18.90;;;8.95;;
41653;SDS011;68687;52.030;7.110;2023-07-31T06:46:31;20.65;;;8.98;;
41653;SDS011;68687;52.030;7.110;2023-07-31T06:48:57;22.95;;;8.30;;
41653;SDS011;68687;52.030;7.110;2023-07-31T06:51:22;23.48;;;8.27;;
41653;SDS011;68687;52.030;7.110;2023-07-31T06:53:47;18.17;;;8.02;;
41653;SDS011;68687;52.030;7.110;2023-07-31T06:56:13;18.92;;;8.02;;
41653;SDS011;68687;52.030;7.110;2023-07-31T06:58:38;21.15;;;8.32;;
41653;SDS011;68687;52.030;7.110;2023-07-31T07:01:04;22.83;;;8.52;;
41653;SDS011;68687;52.030;7.110;2023-07-31T07:03:29;20.85;;;8.88;;
41653;SDS011;68687;52.030;7.110;2023-07-31T07:05:54;18.45;;;7.80;;
41653;SDS011;68687;52.030;7.110;2023-07-31T07:08:20;16.77;;;8.18;;
41653;SDS011;68687;52.030;7.110;2023-07-31T07:10:45;22.45;;;8.65;;
41653;SDS011;68687;52.030;7.110;2023-07-31T07:13:11;23.73;;;8.60;;
41653;SDS011;68687;52.030;7.110;2023-07-31T07:15:37;16.52;;;8.05;;
41653;SDS011;68687;52.030;7.110;2023-07-31T07:18:03;16.42;;;8.50;;
41653;SDS011;68687;52.030;7.110;2023-07-31T07:20:28;14.30;;;7.35;;
41653;SDS011;68687;52.030;7.110;2023-07-31T07:22:53;19.10;;;8.57;;
41653;SDS011;68687;52.030;7.110;2023-07-31T07:25:19;10.85;;;6.78;;
41653;SDS011;68687;52.030;7.110;2023-07-31T07:27:44;9.20;;;5.78;;
41653;SDS011;68687;52.030;7.110;2023-07-31T07:30:09;10.63;;;6.18;;
41653;SDS011;68687;52.030;7.110;2023-07-31T07:32:35;8.32;;;5.68;;
41653;SDS011;68687;52.030;7.110;2023-07-31T07:35:00;7.10;;;5.50;;
41653;SDS011;68687;52.030;7.110;2023-07-31T07:37:25;9.07;;;5.80;;
41653;SDS011;68687;52.030;7.110;2023-07-31T07:39:51;9.85;;;5.38;;
41653;SDS011;68687;52.030;7.110;2023-07-31T07:42:16;9.45;;;4.97;;
41653;SDS011;68687;52.030;7.110;2023-07-31T07:44:41;9.68;;;4.63;;
41653;SDS011;68687;52.030;7.110;2023-07-31T07:47:06;7.65;;;4.60;;
41653;SDS011;68687;52.030;7.110;2023-07-31T07:49:32;7.88;;;4.97;;
41653;SDS011;68687;52.030;7.110;2023-07-31T07:51:59;6.28;;;4.28;;
41653;SDS011;68687;52.030;7.110;2023-07-31T07:54:25;5.57;;;4.43;;
41653;SDS011;68687;52.030;7.110;2023-07-31T07:56:50;6.03;;;4.53;;
41653;SDS011;68687;52.030;7.110;2023-07-31T07:59:15;5.45;;;4.40;;
41653;SDS011;68687;52.030;7.110;2023-07-31T08:01:41;6.30;;;4.55;;
41653;SDS011;68687;52.030;7.110;2023-07-31T08:04:06;5.80;;;4.38;;
41653;SDS011;68687;52.030;7.110;2023-07-31T08:06:31;6.35;;;4.47;;
41653;SDS011;68687;52.030;7.110;2023-07-31T08:08:57;5.55;;;3.90;;
41653;SDS011;68687;52.030;7.110;2023-07-31T08:11:22;6.07;;;4.30;;
41653;SDS011;68687;52.030;7.110;2023-07-31T08:13:48;7.45;;;4.82;;
41653;SDS011;68687;52.030;7.110;2023-07-31T08:16:14;6.93;;;4.28;;
41653;SDS011;68687;52.030;7.110;2023-07-31T08:18:39;5.47;;;4.43;;
41653;SDS011;68687;52.030;7.110;2023-07-31T08:21:05;4.85;;;4.18;;
41653;SDS011;68687;52.030;7.110;2023-07-31T08:23:31;5.72;;;4.97;;
41653;SDS011;68687;52.030;7.110;2023-07-31T08:25:56;7.30;;;5.95;;
41653;SDS011;68687;52.030;7.110;2023-07-31T08:28:21;7.22;;;4.97;;
41653;SDS011;68687;52.030;7.110;2023-07-31T08:30:47;5.00;;;3.90;;
41653;SDS011;68687;52.030;7.110;2023-07-31T08:33:12;7.40;;;5.07;;
41653;SDS011;68687;52.030;7.110;2023-07-31T08:35:37;5.68;;;4.25;;
41653;SDS011;68687;52.030;7.110;2023-07-31T08:38:03;5.85;;;3.88;;
41653;SDS011;68687;52.030;7.110;2023-07-31T08:40:28;5.53;;;3.72;;
41653;SDS011;68687;52.030;7.110;2023-07-31T08:42:54;5.07;;;4.30;;
41653;SDS011;68687;52.030;7.110;2023-07-31T08:45:21;6.40;;;3.85;;
41653;SDS011;68687;52.030;7.110;2023-07-31T08:47:48;5.22;;;4.63;;
41653;SDS011;68687;52.030;7.110;2023-07-31T08:50:16;5.97;;;4.55;;
41653;SDS011;68687;52.030;7.110;2023-07-31T08:52:42;5.38;;;4.82;;
41653;SDS011;68687;52.030;7.110;2023-07-31T08:55:07;6.50;;;4.80;;
41653;SDS011;68687;52.030;7.110;2023-07-31T08:57:34;4.32;;;3.90;;
41653;SDS011;68687;52.030;7.110;2023-07-31T09:00:00;4.82;;;3.85;;
41653;SDS011;68687;52.030;7.110;2023-07-31T09:02:30;5.28;;;4.25;;
41653;SDS011;68687;52.030;7.110;2023-07-31T09:05:00;4.20;;;3.75;;
41653;SDS011;68687;52.030;7.110;2023-07-31T09:07:27;7.53;;;5.35;;
41653;SDS011;68687;52.030;7.110;2023-07-31T09:09:54;5.32;;;4.32;;
41653;SDS011;68687;52.030;7.110;2023-07-31T09:12:19;6.38;;;4.20;;
41653;SDS011;68687;52.030;7.110;2023-07-31T09:14:45;6.10;;;4.97;;
41653;SDS011;68687;52.030;7.110;2023-07-31T09:17:12;5.47;;;4.97;;
41653;SDS011;68687;52.030;7.110;2023-07-31T09:19:37;6.65;;;5.70;;
41653;SDS011;68687;52.030;7.110;2023-07-31T09:22:03;6.53;;;5.20;;
41653;SDS011;68687;52.030;7.110;2023-07-31T09:24:30;7.00;;;4.25;;
41653;SDS011;68687;52.030;7.110;2023-07-31T09:26:57;5.63;;;5.13;;
41653;SDS011;68687;52.030;7.110;2023-07-31T09:29:24;6.07;;;4.60;;
41653;SDS011;68687;52.030;7.110;2023-07-31T09:31:51;5.07;;;4.57;;
41653;SDS011;68687;52.030;7.110;2023-07-31T09:34:17;6.05;;;5.03;;
41653;SDS011;68687;52.030;7.110;2023-07-31T09:36:43;5.63;;;4.80;;
41653;SDS011;68687;52.030;7.110;2023-07-31T09:39:13;4.78;;;4.38;;
41653;SDS011;68687;52.030;7.110;2023-07-31T09:41:44;5.82;;;5.22;;
41653;SDS011;68687;52.030;7.110;2023-07-31T09:44:20;6.85;;;6.18;;
41653;SDS011;68687;52.030;7.110;2023-07-31T09:46:46;6.10;;;5.00;;
41653;SDS011;68687;52.030;7.110;2023-07-31T09:49:12;7.97;;;4.80;;
41653;SDS011;68687;52.030;7.110;2023-07-31T09:51:39;5.13;;;4.63;;
41653;SDS011;68687;52.030;7.110;2023-07-31T09:54:09;5.63;;;4.25;;
41653;SDS011;68687;52.030;7.110;2023-07-31T09:56:41;4.85;;;4.45;;
41653;SDS011;68687;52.030;7.110;2023-07-31T09:59:09;8.40;;;4.07;;
41653;SDS011;68687;52.030;7.110;2023-07-31T10:01:36;5.22;;;4.47;;
41653;SDS011;68687;52.030;7.110;2023-07-31T10:04:02;4.88;;;4.40;;
41653;SDS011;68687;52.030;7.110;2023-07-31T10:06:30;5.85;;;4.60;;
41653;SDS011;68687;52.030;7.110;2023-07-31T10:08:57;4.63;;;4.20;;
41653;SDS011;68687;52.030;7.110;2023-07-31T10:11:24;5.18;;;3.90;;
41653;SDS011;68687;52.030;7.110;2023-07-31T10:13:52;4.22;;;3.78;;
41653;SDS011;68687;52.030;7.110;2023-07-31T10:16:18;6.40;;;3.72;;
41653;SDS011;68687;52.030;7.110;2023-07-31T10:18:45;7.40;;;4.47;;
41653;SDS011;68687;52.030;7.110;2023-07-31T10:21:11;5.72;;;4.10;;
41653;SDS011;68687;52.030;7.110;2023-07-31T10:23:37;9.63;;;4.80;;
41653;SDS011;68687;52.030;7.110;2023-07-31T10:26:03;5.40;;;4.43;;
41653;SDS011;68687;52.030;7.110;2023-07-31T10:28:32;6.05;;;4.55;;
41653;SDS011;68687;52.030;7.110;2023-07-31T10:30:58;7.47;;;5.28;;
41653;SDS011;68687;52.030;7.110;2023-07-31T10:33:23;7.95;;;5.32;;
41653;SDS011;68687;52.030;7.110;2023-07-31T10:35:49;7.13;;;4.35;;
41653;SDS011;68687;52.030;7.110;2023-07-31T10:38:18;9.40;;;5.28;;
41653;SDS011;68687;52.030;7.110;2023-07-31T10:40:43;6.22;;;4.90;;
41653;SDS011;68687;52.030;7.110;2023-07-31T10:43:10;7.45;;;5.10;;
41653;SDS011;68687;52.030;7.110;2023-07-31T10:45:50;8.88;;;5.22;;
41653;SDS011;68687;52.030;7.110;2023-07-31T10:48:15;6.82;;;5.18;;
41653;SDS011;68687;52.030;7.110;2023-07-31T10:50:48;6.60;;;4.75;;
41653;SDS011;68687;52.030;7.110;2023-07-31T10:53:30;8.73;;;5.25;;
41653;SDS011;68687;52.030;7.110;2023-07-31T10:56:01;4.93;;;4.47;;
41653;SDS011;68687;52.030;7.110;2023-07-31T10:58:30;8.35;;;5.25;;
41653;SDS011;68687;52.030;7.110;2023-07-31T11:00:58;6.00;;;5.03;;
41653;SDS011;68687;52.030;7.110;2023-07-31T11:06:35;7.03;;;4.85;;
41653;SDS011;68687;52.030;7.110;2023-07-31T11:09:01;5.40;;;4.90;;
41653;SDS011;68687;52.030;7.110;2023-07-31T11:11:26;5.97;;;5.38;;
41653;SDS011;68687;52.030;7.110;2023-07-31T11:13:52;5.65;;;5.07;;
41653;SDS011;68687;52.030;7.110;2023-07-31T11:16:20;7.75;;;5.47;;
41653;SDS011;68687;52.030;7.110;2023-07-31T11:18:49;7.82;;;5.72;;
41653;SDS011;68687;52.030;7.110;2023-07-31T11:21:22;8.93;;;6.40;;
41653;SDS011;68687;52.030;7.110;2023-07-31T11:23:50;8.52;;;6.15;;
41653;SDS011;68687;52.030;7.110;2023-07-31T11:26:17;7.72;;;6.82;;
41653;SDS011;68687;52.030;7.110;2023-07-31T11:28:43;9.45;;;7.25;;
41653;SDS011;68687;52.030;7.110;2023-07-31T11:31:11;12.70;;;7.03;;
41653;SDS011;68687;52.030;7.110;2023-07-31T11:33:36;11.25;;;6.95;;
41653;SDS011;68687;52.030;7.110;2023-07-31T11:36:02;13.13;;;7.57;;
41653;SDS011;68687;52.030;7.110;2023-07-31T11:38:34;12.68;;;7.97;;
41653;SDS011;68687;52.030;7.110;2023-07-31T11:41:00;12.55;;;7.13;;
41653;SDS011;68687;52.030;7.110;2023-07-31T11:43:27;11.98;;;7.45;;
41653;SDS011;68687;52.030;7.110;2023-07-31T11:45:57;11.20;;;8.30;;
41653;SDS011;68687;52.030;7.110;2023-07-31T11:48:25;13.70;;;8.60;;
41653;SDS011;68687;52.030;7.110;2023-07-31T11:50:52;13.93;;;9.25;;
41653;SDS011;68687;52.030;7.110;2023-07-31T11:53:35;14.55;;;9.32;;
41653;SDS011;68687;52.030;7.110;2023-07-31T11:56:03;16.50;;;9.70;;
41653;SDS011;68687;52.030;7.110;2023-07-31T11:58:30;12.27;;;9.77;;
41653;SDS011;68687;52.030;7.110;2023-07-31T12:00:56;18.88;;;10.88;;
41653;SDS011;68687;52.030;7.110;2023-07-31T12:03:22;18.33;;;10.63;;
41653;SDS011;68687;52.030;7.110;2023-07-31T12:05:48;15.48;;;10.70;;
41653;SDS011;68687;52.030;7.110;2023-07-31T12:08:14;17.23;;;9.80;;
41653;SDS011;68687;52.030;7.110;2023-07-31T12:10:41;14.85;;;10.13;;
41653;SDS011;68687;52.030;7.110;2023-07-31T12:13:08;17.00;;;10.25;;
41653;SDS011;68687;52.030;7.110;2023-07-31T12:15:38;12.95;;;9.25;;
41653;SDS011;68687;52.030;7.110;2023-07-31T12:18:06;11.27;;;9.38;;
41653;SDS011;68687;52.030;7.110;2023-07-31T12:20:33;16.92;;;9.98;;
41653;SDS011;68687;52.030;7.110;2023-07-31T12:22:59;20.35;;;9.30;;
41653;SDS011;68687;52.030;7.110;2023-07-31T12:25:28;13.35;;;8.38;;
41653;SDS011;68687;52.030;7.110;2023-07-31T12:27:55;12.32;;;8.57;;
41653;SDS011;68687;52.030;7.110;2023-07-31T12:30:29;13.23;;;7.88;;
41653;SDS011;68687;52.030;7.110;2023-07-31T12:32:57;14.43;;;7.93;;
41653;SDS011;68687;52.030;7.110;2023-07-31T12:35:34;11.73;;;8.30;;
41653;SDS011;68687;52.030;7.110;2023-07-31T12:38:03;12.80;;;8.32;;
41653;SDS011;68687;52.030;7.110;2023-07-31T12:40:29;14.07;;;8.43;;
41653;SDS011;68687;52.030;7.110;2023-07-31T12:42:54;14.27;;;7.90;;
41653;SDS011;68687;52.030;7.110;2023-07-31T12:45:20;12.77;;;7.68;;
41653;SDS011;68687;52.030;7.110;2023-07-31T12:47:46;12.30;;;8.18;;
41653;SDS011;68687;52.030;7.110;2023-07-31T12:50:11;16.05;;;8.82;;
41653;SDS011;68687;52.030;7.110;2023-07-31T12:52:37;12.30;;;8.43;;
41653;SDS011;68687;52.030;7.110;2023-07-31T12:55:03;10.32;;;7.63;;
41653;SDS011;68687;52.030;7.110;2023-07-31T12:57:29;14.45;;;8.00;;
41653;SDS011;68687;52.030;7.110;2023-07-31T12:59:55;14.25;;;8.25;;
41653;SDS011;68687;52.030;7.110;2023-07-31T13:02:20;11.35;;;8.30;;
41653;SDS011;68687;52.030;7.110;2023-07-31T13:04:45;11.73;;;7.40;;
41653;SDS011;68687;52.030;7.110;2023-07-31T13:07:10;14.07;;;8.50;;
41653;SDS011;68687;52.030;7.110;2023-07-31T13:09:36;10.82;;;7.45;;
41653;SDS011;68687;52.030;7.110;2023-07-31T13:12:01;13.50;;;8.20;;
41653;SDS011;68687;52.030;7.110;2023-07-31T13:14:26;13.90;;;8.10;;
41653;SDS011;68687;52.030;7.110;2023-07-31T13:16:52;12.27;;;8.82;;
41653;SDS011;68687;52.030;7.110;2023-07-31T13:19:17;16.13;;;7.85;;
41653;SDS011;68687;52.030;7.110;2023-07-31T13:21:42;10.48;;;7.65;;
41653;SDS011;68687;52.030;7.110;2023-07-31T13:24:08;12.10;;;7.72;;
41653;SDS011;68687;52.030;7.110;2023-07-31T13:26:34;10.82;;;7.00;;
41653;SDS011;68687;52.030;7.110;2023-07-31T13:29:01;18.38;;;7.97;;
41653;SDS011;68687;52.030;7.110;2023-07-31T13:31:26;14.93;;;7.70;;
41653;SDS011;68687;52.030;7.110;2023-07-31T13:33:51;11.32;;;7.00;;
41653;SDS011;68687;52.030;7.110;2023-07-31T13:36:16;10.52;;;7.13;;
41653;SDS011;68687;52.030;7.110;2023-07-31T13:38:42;7.40;;;6.53;;
41653;SDS011;68687;52.030;7.110;2023-07-31T13:41:07;10.52;;;6.60;;
41653;SDS011;68687;52.030;7.110;2023-07-31T13:43:32;9.05;;;7.35;;
41653;SDS011;68687;52.030;7.110;2023-07-31T13:45:58;10.43;;;7.30;;
41653;SDS011;68687;52.030;7.110;2023-07-31T13:48:29;12.05;;;6.80;;
41653;SDS011;68687;52.030;7.110;2023-07-31T13:50:54;8.90;;;6.30;;
41653;SDS011;68687;52.030;7.110;2023-07-31T13:53:19;13.77;;;5.88;;
41653;SDS011;68687;52.030;7.110;2023-07-31T13:55:47;10.77;;;6.20;;
41653;SDS011;68687;52.030;7.110;2023-07-31T13:58:14;11.73;;;5.65;;
41653;SDS011;68687;52.030;7.110;2023-07-31T14:00:39;6.88;;;5.93;;
41653;SDS011;68687;52.030;7.110;2023-07-31T14:03:07;8.90;;;5.85;;
41653;SDS011;68687;52.030;7.110;2023-07-31T14:05:36;12.45;;;5.68;;
41653;SDS011;68687;52.030;7.110;2023-07-31T14:08:01;9.38;;;5.03;;
41653;SDS011;68687;52.030;7.110;2023-07-31T14:10:26;8.25;;;5.40;;
41653;SDS011;68687;52.030;7.110;2023-07-31T14:12:52;9.25;;;5.32;;
41653;SDS011;68687;52.030;7.110;2023-07-31T14:15:17;8.18;;;5.70;;
41653;SDS011;68687;52.030;7.110;2023-07-31T14:17:45;9.75;;;4.97;;
41653;SDS011;68687;52.030;7.110;2023-07-31T14:20:10;9.23;;;5.22;;
41653;SDS011;68687;52.030;7.110;2023-07-31T14:22:36;7.05;;;5.15;;
41653;SDS011;68687;52.030;7.110;2023-07-31T14:25:03;10.10;;;5.10;;
41653;SDS011;68687;52.030;7.110;2023-07-31T14:27:29;7.88;;;5.50;;
41653;SDS011;68687;52.030;7.110;2023-07-31T14:29:54;6.05;;;4.65;;
41653;SDS011;68687;52.030;7.110;2023-07-31T14:32:20;9.82;;;5.20;;
41653;SDS011;68687;52.030;7.110;2023-07-31T14:34:46;6.50;;;5.45;;